Questions du test N°1
  

0  - Dans un METAR ou un TAF, Le code BKN signifie que la proportion du ciel couvert par les nuages est de :

  3/8 à 4/8
  5/8 à 7/8
  8/8
  je ne sais pas


1  - Dans un METAR OVC040 signifie que cette couverture nuageuse se trouve...

  à 4000ft QNH
  à 4000ft QFE
  au niveau 040
  Je ne sais pas


2  - Lorsqu'il y a brouillard, la visibilité est inférieure à ...

  Inférieure à 500m
  Inférieure à 1 km
  Inférieure à 5 km
  Je ne sais pas


3  - A 5 000ft d'altitude selon l'atmosphère standard :

  La température est de 15°
  La température est de 5°
  La température est de 17,5°
  Je ne sais pas


4  - L’ensemble des mouvements verticaux de l’air, ascendants et descendants, dus au réchauffement diurne du sol est appelé :

  convection
  coalescence
  conduction
  Je ne sais pas


5  - Un METAR commence par LFBO 041300Z ...L'heure d'émission est (En heure locale, en été) :

  13H
  04H
  15H
  Je ne sais pas


6  - METAR de Castres : LFCK 080900Z 28015KT 9999 SCT015 BKN040 18/16 Q1017 NOSIG= les nuages qui sont l'objet du code SCT015 couvrent :

  plus de la moitié du ciel .Leur base est à 1500 ft
  plus de la moitié du ciel et leur base est entre 1500 et 1800 ft
  moins de la moitié du ciel et leur base est à 1500 ft
  Je ne sais pas